Time;durP1;ratioP1;P1;durP2;ratioP2;P2;SDS_P1;SDS_P2;PMS_P1;PMS_P2;Temp;Humidity;BMP_temperature;BMP_pressure;BME280_temperature;BME280_humidity;BME280_pressure;Samples;Min_cycle;Max_cycle;Signal;HPM_P1;HPM_P2
2023/01/03 00:09:51;;;;;;;;;;;;;;;;;;5015228;28;6866;-72
2023/01/03 00:15:06;;;;;;;;;;;;;;;;;;5015089;28;6903;-71
2023/01/03 00:17:32;;;;;;;;;;;;;;;;;;5015060;28;6822;-71
2023/01/03 00:19:57;;;;;;;;;;;;;;;;;;5016246;28;7202;-71
2023/01/03 00:25:37;;;;;;;;;;;;;;;;;;5015177;28;6720;-71
2023/01/03 00:28:03;;;;;;;;;;;;;;;;;;5015150;28;6932;-71
2023/01/03 00:30:28;;;;;;;;;;;;;;;;;;5015250;28;7212;-71
2023/01/03 00:32:54;;;;;;;;;;;;;;;;;;5013391;28;7129;-71
2023/01/03 00:35:25;;;;;;;;;;;;;;;;;;5014882;28;8001;-71
2023/01/03 00:37:51;;;;;;;;;;;;;;;;;;5014746;28;7130;-71
2023/01/03 00:49:25;;;;;;;;;;;;;;;;;;5014698;28;6708;-71
2023/01/03 00:52:03;;;;;;;;;;;;;;;;;;5014941;28;7029;-71
2023/01/03 00:54:29;;;;;;;;;;;;;;;;;;5014759;28;7436;-71
2023/01/03 00:56:55;;;;;;;;;;;;;;;;;;5014924;28;7188;-71
2023/01/03 00:59:41;;;;;;;;;;;;;;;;;;5015099;28;6951;-71
2023/01/03 01:02:06;;;;;;;;;;;;;;;;;;5014868;28;7200;-71
2023/01/03 01:07:29;;;;;;;;;;;;;;;;;;5018366;28;7084;-71
2023/01/03 01:10:13;;;;;;;;;;;;;;;;;;5019606;28;7096;-71
2023/01/03 01:18:45;;;;;;;;;;;;;;;;;;5018492;28;6682;-71
2023/01/03 01:21:13;;;;;;;;;;;;;;;;;;5018523;28;7200;-71
2023/01/03 01:23:40;;;;;;;;;;;;;;;;;;5018598;28;7216;-71
2023/01/03 01:26:23;;;;;;;;;;;;;;;;;;5018538;28;7158;-71
2023/01/03 01:28:49;;;;;;;;;;;;;;;;;;5018537;28;7262;-71
2023/01/03 01:31:17;;;;;;;;;;;;;;;;;;5018406;28;6947;-71
2023/01/03 01:33:43;;;;;;;;;;;;;;;;;;5011769;28;7220;-71
2023/01/03 01:36:42;;;;;;;;;;;;;;;;;;5018340;28;7411;-71
2023/01/03 01:39:10;;;;;;;;;;;;;;;;;;5018534;28;7149;-71
2023/01/03 01:44:42;;;;;;;;;;;;;;;;;;5018332;28;6717;-71
2023/01/03 01:47:25;;;;;;;;;;;;;;;;;;5018083;28;7400;-71
2023/01/03 01:49:58;;;;;;;;;;;;;;;;;;4998555;28;7128;-71
2023/01/03 01:52:24;;;;;;;;;;;;;;;;;;4998370;28;7364;-71
2023/01/03 01:57:53;;;;;;;;;;;;;;;;;;4998223;28;6693;-71
2023/01/03 02:00:54;;;;;;;;;;;;;;;;;;4998095;28;7250;-71
2023/01/03 02:03:20;;;;;;;;;;;;;;;;;;4998049;28;7161;-71
2023/01/03 02:05:50;;;;;;;;;;;;;;;;;;4998232;28;7352;-71
2023/01/03 02:14:49;;;;;;;;;;;;;;;;;;4997690;28;6680;-71
2023/01/03 02:20:15;;;;;;;;;;;;;;;;;;4998308;28;6933;-71
2023/01/03 02:25:49;;;;;;;;;;;;;;;;;;4997676;28;7421;-71
2023/01/03 02:31:24;;;;;;;;;;;;;;;;;;4998084;28;6974;-71
2023/01/03 02:33:52;;;;;;;;;;;;;;;;;;4992748;28;7241;-71
2023/01/03 02:39:27;;;;;;;;;;;;;;;;;;4997429;28;6888;-71
2023/01/03 02:44:57;;;;;;;;;;;;;;;;;;4997538;28;6936;-71
2023/01/03 02:47:27;;;;;;;;;;;;;;;;;;4997502;28;7260;-71
2023/01/03 02:49:57;;;;;;;;;;;;;;;;;;5017024;28;7222;-71
2023/01/03 02:52:28;;;;;;;;;;;;;;;;;;5016716;28;7168;-71
2023/01/03 03:04:02;;;;;;;;;;;;;;;;;;5016613;28;6748;-71
2023/01/03 03:06:54;;;;;;;;;;;;;;;;;;5017264;28;7255;-71
2023/01/03 03:09:19;;;;;;;;;;;;;;;;;;5016666;28;7190;-71
2023/01/03 03:14:53;;;;;;;;;;;;;;;;;;5016436;28;6807;-71
2023/01/03 03:17:23;;;;;;;;;;;;;;;;;;5016169;28;6950;-71
2023/01/03 03:28:43;;;;;;;;;;;;;;;;;;5015851;28;6680;-71
2023/01/03 03:34:24;;;;;;;;;;;;;;;;;;5014792;28;6735;-71
2023/01/03 03:37:10;;;;;;;;;;;;;;;;;;5016142;28;7089;-71
2023/01/03 03:49:36;;;;;;;;;;;;;;;;;;5016076;28;6909;-71
2023/01/03 03:54:24;;;;;;;;;;;;;;;;;;5015541;28;6680;-71
2023/01/03 04:03:05;;;;;;;;;;;;;;;;;;5015283;28;6981;-71
2023/01/03 04:05:34;;;;;;;;;;;;;;;;;;5015661;28;7278;-71
2023/01/03 04:08:30;;;;;;;;;;;;;;;;;;5015543;28;7155;-71
2023/01/03 04:11:04;;;;;;;;;;;;;;;;;;5015610;28;6949;-71
2023/01/03 04:13:34;;;;;;;;;;;;;;;;;;5012006;28;7244;-71
2023/01/03 04:16:33;;;;;;;;;;;;;;;;;;5015449;28;7315;-71
2023/01/03 04:18:58;;;;;;;;;;;;;;;;;;5016234;28;7187;-71
2023/01/03 04:21:24;;;;;;;;;;;;;;;;;;5015389;28;7084;-71
2023/01/03 04:23:50;;;;;;;;;;;;;;;;;;5015018;28;6915;-71
2023/01/03 04:26:17;;;;;;;;;;;;;;;;;;5015317;28;6938;-71
2023/01/03 04:28:43;;;;;;;;;;;;;;;;;;5015124;28;7158;-71
2023/01/03 04:34:11;;;;;;;;;;;;;;;;;;5009241;28;6931;-71
2023/01/03 04:36:36;;;;;;;;;;;;;;;;;;5015219;28;7431;-71
2023/01/03 04:39:37;;;;;;;;;;;;;;;;;;5015089;28;7050;-71
2023/01/03 04:44:00;;;;;;;;;;;;;;;;;;5014426;28;6984;-71
2023/01/03 04:47:52;;;;;;;;;;;;;;;;;;5018390;28;6934;-71
2023/01/03 04:53:21;;;;;;;;;;;;;;;;;;5034406;28;6676;-71
2023/01/03 04:55:48;;;;;;;;;;;;;;;;;;5034777;28;7753;-71
2023/01/03 04:58:37;;;;;;;;;;;;;;;;;;5034647;28;7083;-71
2023/01/03 05:01:04;;;;;;;;;;;;;;;;;;5034750;28;7205;-71
2023/01/03 05:18:50;;;;;;;;;;;;;;;;;;5034380;28;6926;-71
2023/01/03 05:27:00;;;;;;;;;;;;;;;;;;5034508;28;6803;-71
2023/01/03 05:29:27;;;;;;;;;;;;;;;;;;5034030;28;7055;-71
2023/01/03 05:32:08;;;;;;;;;;;;;;;;;;5034056;28;7196;-71
2023/01/03 05:34:36;;;;;;;;;;;;;;;;;;5034283;28;7209;-71
2023/01/03 05:37:02;;;;;;;;;;;;;;;;;;5034428;28;7117;-71
2023/01/03 05:39:34;;;;;;;;;;;;;;;;;;5033982;28;7988;-72
2023/01/03 05:42:00;;;;;;;;;;;;;;;;;;5033812;28;7272;-72
2023/01/03 05:44:26;;;;;;;;;;;;;;;;;;5034168;28;7531;-72
2023/01/03 05:46:52;;;;;;;;;;;;;;;;;;5022900;28;7069;-71
2023/01/03 05:49:17;;;;;;;;;;;;;;;;;;5008025;28;7145;-72
2023/01/03 05:51:43;;;;;;;;;;;;;;;;;;5012502;28;7399;-72
2023/01/03 05:54:31;;;;;;;;;;;;;;;;;;5017593;28;6981;-72
2023/01/03 05:56:57;;;;;;;;;;;;;;;;;;5018124;28;7903;-72
2023/01/03 05:59:22;;;;;;;;;;;;;;;;;;5018015;28;7210;-72
2023/01/03 06:04:51;;;;;;;;;;;;;;;;;;5016799;28;6930;-71
2023/01/03 06:10:19;;;;;;;;;;;;;;;;;;4997947;28;6978;-72
2023/01/03 06:13:20;;;;;;;;;;;;;;;;;;4998221;28;7133;-72
2023/01/03 06:17:53;;;;;;;;;;;;;;;;;;4998698;28;7141;-72
2023/01/03 06:18:33;;;;;;;;;;;;;;;;;;5017821;28;7233;-72
2023/01/03 06:20:58;;;;;;;;;;;;;;;;;;5017483;28;7431;-72
2023/01/03 06:23:39;;;;;;;;;;;;;;;;;;4999903;28;8650;-71
2023/01/03 06:26:04;;;;;;;;;;;;;;;;;;5017428;28;7079;-72
2023/01/03 06:28:49;;;;;;;;;;;;;;;;;;5017141;28;6945;-72
2023/01/03 06:31:15;;;;;;;;;;;;;;;;;;5017579;28;7482;-71
2023/01/03 06:33:40;;;;;;;;;;;;;;;;;;5017221;28;7088;-71
2023/01/03 06:36:08;;;;;;;;;;;;;;;;;;4977962;28;7116;-72
2023/01/03 06:41:25;;;;;;;;;;;;;;;;;;4978253;28;6771;-71
2023/01/03 06:44:00;;;;;;;;;;;;;;;;;;4969986;28;7048;-71
2023/01/03 06:55:30;;;;;;;;;;;;;;;;;;4977648;28;7422;-70
2023/01/03 06:57:56;;;;;;;;;;;;;;;;;;4977400;28;7141;-70
2023/01/03 07:03:32;;;;;;;;;;;;;;;;;;4976585;28;6674;-69
2023/01/03 07:05:58;;;;;;;;;;;;;;;;;;4977193;28;7191;-70
2023/01/03 07:08:24;;;;;;;;;;;;;;;;;;4976413;28;8923;-70
2023/01/03 07:14:01;;;;;;;;;;;;;;;;;;4977644;28;6801;-70
2023/01/03 07:16:31;;;;;;;;;;;;;;;;;;4977469;28;7389;-70
2023/01/03 07:19:06;;;;;;;;;;;;;;;;;;4977174;28;6890;-70
2023/01/03 07:21:34;;;;;;;;;;;;;;;;;;4975953;28;8679;-70
2023/01/03 07:24:23;;;;;;;;;;;;;;;;;;4977251;28;7205;-70
2023/01/03 07:26:49;;;;;;;;;;;;;;;;;;4978521;28;7191;-71
2023/01/03 07:32:27;;;;;;;;;;;;;;;;;;4996329;28;6679;-70
2023/01/03 07:35:19;;;;;;;;;;;;;;;;;;5004209;28;7422;-71
2023/01/03 07:37:45;;;;;;;;;;;;;;;;;;5020910;28;7137;-70
2023/01/03 07:40:11;;;;;;;;;;;;;;;;;;5015093;28;8624;-70
2023/01/03 07:45:24;;;;;;;;;;;;;;;;;;5007732;28;6980;-71
2023/01/03 07:51:30;;;;;;;;;;;;;;;;;;5035362;28;6702;-71
2023/01/03 07:53:56;;;;;;;;;;;;;;;;;;5035434;28;7046;-71
2023/01/03 07:56:23;;;;;;;;;;;;;;;;;;5000404;28;7233;-71
2023/01/03 07:58:52;;;;;;;;;;;;;;;;;;4995914;28;7100;-71
2023/01/03 08:01:53;;;;;;;;;;;;;;;;;;4996204;28;6952;-71
2023/01/03 08:04:19;;;;;;;;;;;;;;;;;;4995622;28;7051;-71
2023/01/03 08:06:48;;;;;;;;;;;;;;;;;;4995829;28;7099;-70
2023/01/03 08:17:55;;;;;;;;;;;;;;;;;;4995620;28;6684;-70
2023/01/03 08:20:20;;;;;;;;;;;;;;;;;;4995678;28;6981;-70
2023/01/03 08:23:17;;;;;;;;;;;;;;;;;;4994348;28;7146;-70
2023/01/03 08:25:42;;;;;;;;;;;;;;;;;;4996015;28;7131;-71
2023/01/03 08:28:15;;;;;;;;;;;;;;;;;;4995363;28;6899;-71
2023/01/03 08:30:49;;;;;;;;;;;;;;;;;;4994141;28;8412;-71
2023/01/03 08:33:25;;;;;;;;;;;;;;;;;;4995556;28;7564;-71
2023/01/03 08:35:55;;;;;;;;;;;;;;;;;;4996403;28;7198;-71
2023/01/03 08:38:24;;;;;;;;;;;;;;;;;;4995543;28;7720;-71
2023/01/03 08:40:50;;;;;;;;;;;;;;;;;;4995235;28;7153;-71
2023/01/03 08:43:17;;;;;;;;;;;;;;;;;;4995480;28;7109;-71
2023/01/03 08:48:46;;;;;;;;;;;;;;;;;;4995200;28;6688;-71
2023/01/03 08:51:12;;;;;;;;;;;;;;;;;;4995343;28;7015;-72
2023/01/03 08:53:48;;;;;;;;;;;;;;;;;;4994250;28;8498;-71
2023/01/03 08:56:14;;;;;;;;;;;;;;;;;;5006596;28;7155;-71
2023/01/03 08:58:39;;;;;;;;;;;;;;;;;;5014638;28;7002;-71
2023/01/03 09:01:27;;;;;;;;;;;;;;;;;;5002451;28;7357;-71
2023/01/03 09:03:52;;;;;;;;;;;;;;;;;;5005006;28;7637;-70
2023/01/03 09:06:27;;;;;;;;;;;;;;;;;;5008773;28;7133;-71
2023/01/03 09:08:53;;;;;;;;;;;;;;;;;;4999117;28;7157;-71
2023/01/03 09:14:58;;;;;;;;;;;;;;;;;;5010578;28;6758;-70
2023/01/03 09:17:24;;;;;;;;;;;;;;;;;;4995226;28;7384;-70
2023/01/03 09:20:21;;;;;;;;;;;;;;;;;;5011544;28;8089;-71
2023/01/03 09:22:47;;;;;;;;;;;;;;;;;;5005834;28;8413;-71
2023/01/03 09:25:22;;;;;;;;;;;;;;;;;;5003794;28;7141;-71
2023/01/03 09:27:48;;;;;;;;;;;;;;;;;;5006277;28;7058;-71
2023/01/03 09:30:33;;;;;;;;;;;;;;;;;;5009266;28;7174;-71
2023/01/03 09:32:59;;;;;;;;;;;;;;;;;;5009521;28;7083;-71
2023/01/03 09:35:24;;;;;;;;;;;;;;;;;;5011909;28;7059;-71
2023/01/03 09:37:50;;;;;;;;;;;;;;;;;;5005252;28;7436;-71
2023/01/03 09:43:33;;;;;;;;;;;;;;;;;;5013665;28;7538;-71
2023/01/03 09:46:00;;;;;;;;;;;;;;;;;;5013959;28;7251;-71
2023/01/03 09:48:37;;;;;;;;;;;;;;;;;;5017220;28;7059;-71
2023/01/03 10:03:42;;;;;;;;;;;;;;;;;;5004502;28;7443;-72
2023/01/03 10:08:10;;;;;;;;;;;;;;;;;;5002853;28;6780;-71
2023/01/03 10:11:01;;;;;;;;;;;;;;;;;;5008565;28;7419;-71
2023/01/03 10:13:32;;;;;;;;;;;;;;;;;;4999366;28;7462;-71
2023/01/03 10:19:36;;;;;;;;;;;;;;;;;;4997141;28;6687;-71
2023/01/03 10:22:02;;;;;;;;;;;;;;;;;;5005920;28;7200;-71
2023/01/03 10:24:36;;;;;;;;;;;;;;;;;;5002002;28;7706;-71
2023/01/03 10:27:07;;;;;;;;;;;;;;;;;;5016433;28;7771;-71
2023/01/03 10:32:25;;;;;;;;;;;;;;;;;;5007304;28;7015;-71
2023/01/03 10:35:09;;;;;;;;;;;;;;;;;;5012093;28;7316;-71
2023/01/03 10:37:35;;;;;;;;;;;;;;;;;;5005787;28;7287;-71
2023/01/03 10:49:18;;;;;;;;;;;;;;;;;;5015954;28;6930;-71
2023/01/03 10:55:11;;;;;;;;;;;;;;;;;;4996966;28;6751;-71
2023/01/03 10:57:47;;;;;;;;;;;;;;;;;;4983267;28;7353;-70
2023/01/03 11:03:23;;;;;;;;;;;;;;;;;;4984941;28;6744;-71
2023/01/03 11:09:11;;;;;;;;;;;;;;;;;;4987838;28;6809;-71
2023/01/03 11:11:41;;;;;;;;;;;;;;;;;;4984775;28;7242;-71
2023/01/03 11:14:27;;;;;;;;;;;;;;;;;;4977051;28;7122;-71
2023/01/03 11:17:14;;;;;;;;;;;;;;;;;;4977075;28;7006;-71
2023/01/03 11:19:39;;;;;;;;;;;;;;;;;;4989074;28;7056;-71
2023/01/03 11:25:26;;;;;;;;;;;;;;;;;;4987779;28;6999;-71
2023/01/03 11:28:10;;;;;;;;;;;;;;;;;;4985211;28;7402;-71
2023/01/03 11:30:46;;;;;;;;;;;;;;;;;;4976922;28;7235;-71
2023/01/03 11:33:23;;;;;;;;;;;;;;;;;;4976828;28;7158;-71
2023/01/03 11:39:00;;;;;;;;;;;;;;;;;;4991591;28;6938;-71
2023/01/03 11:41:55;;;;;;;;;;;;;;;;;;4989903;28;7218;-71
2023/01/03 11:44:39;;;;;;;;;;;;;;;;;;4995710;28;7477;-71
2023/01/03 11:50:29;;;;;;;;;;;;;;;;;;4983915;28;7135;-71
2023/01/03 11:53:02;;;;;;;;;;;;;;;;;;4989469;28;7212;-71
2023/01/03 11:55:46;;;;;;;;;;;;;;;;;;4990848;28;7167;-71
2023/01/03 11:58:11;;;;;;;;;;;;;;;;;;4996292;28;7148;-71
2023/01/03 12:00:43;;;;;;;;;;;;;;;;;;5001813;28;7410;-71
2023/01/03 12:03:23;;;;;;;;;;;;;;;;;;5008551;28;7122;-71
2023/01/03 12:06:07;;;;;;;;;;;;;;;;;;5006320;28;7157;-71
2023/01/03 12:08:32;;;;;;;;;;;;;;;;;;5013121;28;7166;-70
2023/01/03 12:11:16;;;;;;;;;;;;;;;;;;5014649;28;7160;-70
2023/01/03 12:14:00;;;;;;;;;;;;;;;;;;4999927;28;7211;-70
2023/01/03 12:16:28;;;;;;;;;;;;;;;;;;5004033;28;7084;-71
2023/01/03 12:22:15;;;;;;;;;;;;;;;;;;4936058;29;6798;-71
2023/01/03 12:27:48;;;;;;;;;;;;;;;;;;4935975;29;6948;-71
2023/01/03 12:30:44;;;;;;;;;;;;;;;;;;4935567;29;7179;-71
2023/01/03 12:33:29;;;;;;;;;;;;;;;;;;4935795;29;7082;-71
2023/01/03 12:36:24;;;;;;;;;;;;;;;;;;4935637;29;8421;-70
2023/01/03 12:38:59;;;;;;;;;;;;;;;;;;4935939;29;6948;-70
2023/01/03 12:41:33;;;;;;;;;;;;;;;;;;4935439;29;7134;-70
2023/01/03 12:47:21;;;;;;;;;;;;;;;;;;4936250;29;6942;-70
2023/01/03 12:52:59;;;;;;;;;;;;;;;;;;4935717;29;6679;-70
2023/01/03 12:55:50;;;;;;;;;;;;;;;;;;4935114;29;7326;-70
2023/01/03 12:58:33;;;;;;;;;;;;;;;;;;4968498;28;7121;-70
2023/01/03 13:01:05;;;;;;;;;;;;;;;;;;4975886;28;7308;-70
2023/01/03 13:03:48;;;;;;;;;;;;;;;;;;4979081;28;7310;-70
2023/01/03 13:06:30;;;;;;;;;;;;;;;;;;4979943;28;7056;-70
2023/01/03 13:09:30;;;;;;;;;;;;;;;;;;4979934;28;6976;-70
2023/01/03 13:12:00;;;;;;;;;;;;;;;;;;4979668;28;7429;-70
2023/01/03 13:14:53;;;;;;;;;;;;;;;;;;4978859;28;8429;-70
2023/01/03 13:17:20;;;;;;;;;;;;;;;;;;4979770;28;6964;-70
2023/01/03 13:23:00;;;;;;;;;;;;;;;;;;4979307;28;7431;-70
2023/01/03 13:25:29;;;;;;;;;;;;;;;;;;4979658;28;7143;-70
2023/01/03 13:28:29;;;;;;;;;;;;;;;;;;4979601;28;7185;-70
2023/01/03 13:31:13;;;;;;;;;;;;;;;;;;4979372;28;7769;-70
2023/01/03 13:37:00;;;;;;;;;;;;;;;;;;4979118;28;6742;-70
2023/01/03 13:39:52;;;;;;;;;;;;;;;;;;4980258;28;7399;-70
2023/01/03 13:42:29;;;;;;;;;;;;;;;;;;4979149;28;7380;-70
2023/01/03 13:45:10;;;;;;;;;;;;;;;;;;4979212;28;7191;-70
2023/01/03 13:47:41;;;;;;;;;;;;;;;;;;4979157;28;7081;-70
2023/01/03 13:50:18;;;;;;;;;;;;;;;;;;4979230;28;7447;-70
2023/01/03 13:52:59;;;;;;;;;;;;;;;;;;4978948;28;7143;-70
2023/01/03 13:55:49;;;;;;;;;;;;;;;;;;4978755;28;7459;-70
2023/01/03 14:01:29;;;;;;;;;;;;;;;;;;4978798;28;6719;-70
2023/01/03 14:07:04;;;;;;;;;;;;;;;;;;4978702;28;6948;-70
2023/01/03 14:10:01;;;;;;;;;;;;;;;;;;4978776;28;7194;-70
2023/01/03 14:12:32;;;;;;;;;;;;;;;;;;4978781;28;7060;-70
2023/01/03 14:15:31;;;;;;;;;;;;;;;;;;4978805;28;7093;-70
2023/01/03 14:18:01;;;;;;;;;;;;;;;;;;4978943;28;7607;-72
2023/01/03 14:20:57;;;;;;;;;;;;;;;;;;4978331;28;6969;-72
2023/01/03 14:23:24;;;;;;;;;;;;;;;;;;4978235;28;6947;-72
2023/01/03 14:26:24;;;;;;;;;;;;;;;;;;4992972;28;7242;-71
2023/01/03 14:28:52;;;;;;;;;;;;;;;;;;5012837;28;8451;-71
2023/01/03 14:34:39;;;;;;;;;;;;;;;;;;4997558;28;6926;-71
2023/01/03 14:37:10;;;;;;;;;;;;;;;;;;4997533;28;7273;-71
2023/01/03 14:39:36;;;;;;;;;;;;;;;;;;4997727;28;6961;-71
2023/01/03 14:42:03;;;;;;;;;;;;;;;;;;4997655;28;7108;-71
2023/01/03 14:44:30;;;;;;;;;;;;;;;;;;4997323;28;7319;-72
2023/01/03 14:47:20;;;;;;;;;;;;;;;;;;4985837;28;7055;-71
2023/01/03 14:49:51;;;;;;;;;;;;;;;;;;4997452;28;7370;-71
2023/01/03 14:52:30;;;;;;;;;;;;;;;;;;4997112;28;6927;-71
2023/01/03 14:54:58;;;;;;;;;;;;;;;;;;4997123;28;7133;-72
2023/01/03 14:57:26;;;;;;;;;;;;;;;;;;4998555;28;7227;-71
2023/01/03 14:59:53;;;;;;;;;;;;;;;;;;5017008;28;7086;-71
2023/01/03 15:02:19;;;;;;;;;;;;;;;;;;5016852;28;7136;-71
2023/01/03 15:05:05;;;;;;;;;;;;;;;;;;4999545;28;8492;-71
2023/01/03 15:07:42;;;;;;;;;;;;;;;;;;5017606;28;7153;-71
2023/01/03 15:10:34;;;;;;;;;;;;;;;;;;5016764;28;7170;-71
2023/01/03 15:13:00;;;;;;;;;;;;;;;;;;5017225;28;9409;-71
2023/01/03 15:15:27;;;;;;;;;;;;;;;;;;5016345;28;6966;-71
2023/01/03 15:18:00;;;;;;;;;;;;;;;;;;5017341;28;7283;-71
2023/01/03 15:20:35;;;;;;;;;;;;;;;;;;5016576;28;7252;-71
2023/01/03 15:23:01;;;;;;;;;;;;;;;;;;5017317;28;7309;-71
2023/01/03 15:25:38;;;;;;;;;;;;;;;;;;5015656;28;7240;-71
2023/01/03 15:28:12;;;;;;;;;;;;;;;;;;5017069;28;7194;-71
2023/01/03 15:30:48;;;;;;;;;;;;;;;;;;5016299;28;7123;-71
2023/01/03 15:33:23;;;;;;;;;;;;;;;;;;5016221;28;7068;-71
2023/01/03 15:38:52;;;;;;;;;;;;;;;;;;5016016;28;6693;-71
2023/01/03 15:44:25;;;;;;;;;;;;;;;;;;5015657;28;8917;-72
2023/01/03 15:46:55;;;;;;;;;;;;;;;;;;4998759;28;7118;-71
2023/01/03 15:49:22;;;;;;;;;;;;;;;;;;5016040;28;7458;-71
2023/01/03 15:51:56;;;;;;;;;;;;;;;;;;5015841;28;7386;-72
2023/01/03 15:54:21;;;;;;;;;;;;;;;;;;5026015;28;7450;-71
2023/01/03 15:56:52;;;;;;;;;;;;;;;;;;5015878;28;7195;-71
2023/01/03 15:59:24;;;;;;;;;;;;;;;;;;5008396;28;7108;-71
2023/01/03 16:01:54;;;;;;;;;;;;;;;;;;5015657;28;7362;-71
2023/01/03 16:04:20;;;;;;;;;;;;;;;;;;5015967;28;7069;-71
2023/01/03 16:06:48;;;;;;;;;;;;;;;;;;5015690;28;7164;-71
2023/01/03 16:09:14;;;;;;;;;;;;;;;;;;5016491;28;7355;-71
2023/01/03 16:11:41;;;;;;;;;;;;;;;;;;5016277;28;7312;-71
2023/01/03 16:14:14;;;;;;;;;;;;;;;;;;5014936;28;7081;-71
2023/01/03 16:16:55;;;;;;;;;;;;;;;;;;5015540;28;7069;-71
2023/01/03 16:19:24;;;;;;;;;;;;;;;;;;4994321;28;7187;-71
2023/01/03 16:21:52;;;;;;;;;;;;;;;;;;4995887;28;7514;-71
2023/01/03 16:24:18;;;;;;;;;;;;;;;;;;4995747;28;7166;-71
2023/01/03 16:29:46;;;;;;;;;;;;;;;;;;4995798;28;7024;-71
2023/01/03 16:32:32;;;;;;;;;;;;;;;;;;4995357;28;7026;-71
2023/01/03 16:35:02;;;;;;;;;;;;;;;;;;4995429;28;7212;-71
2023/01/03 16:37:33;;;;;;;;;;;;;;;;;;4995507;28;7166;-71
2023/01/03 16:39:59;;;;;;;;;;;;;;;;;;4978416;28;7166;-71
2023/01/03 16:42:27;;;;;;;;;;;;;;;;;;4995530;28;7161;-71
2023/01/03 16:45:05;;;;;;;;;;;;;;;;;;5002223;28;7465;-71
2023/01/03 16:47:32;;;;;;;;;;;;;;;;;;5014241;28;7070;-71
2023/01/03 16:50:03;;;;;;;;;;;;;;;;;;4997202;28;8455;-71
2023/01/03 16:55:34;;;;;;;;;;;;;;;;;;5014656;28;7021;-71
2023/01/03 16:58:00;;;;;;;;;;;;;;;;;;5015259;28;7508;-71
2023/01/03 17:00:28;;;;;;;;;;;;;;;;;;5034701;28;7131;-71
2023/01/03 17:03:02;;;;;;;;;;;;;;;;;;5034324;28;6936;-71
2023/01/03 17:05:31;;;;;;;;;;;;;;;;;;5034698;28;7055;-71
2023/01/03 17:08:02;;;;;;;;;;;;;;;;;;5034753;28;7047;-71
2023/01/03 17:10:47;;;;;;;;;;;;;;;;;;5034424;28;6945;-71
2023/01/03 17:13:39;;;;;;;;;;;;;;;;;;5034224;28;7198;-71
2023/01/03 17:16:09;;;;;;;;;;;;;;;;;;5034725;28;7397;-71
2023/01/03 17:18:36;;;;;;;;;;;;;;;;;;5017306;28;8672;-71
2023/01/03 17:21:20;;;;;;;;;;;;;;;;;;5034089;28;7197;-71
2023/01/03 17:24:02;;;;;;;;;;;;;;;;;;5034543;28;6982;-71
2023/01/03 17:26:30;;;;;;;;;;;;;;;;;;5034775;28;7410;-71
2023/01/03 17:28:58;;;;;;;;;;;;;;;;;;5034843;28;7479;-71
2023/01/03 17:31:55;;;;;;;;;;;;;;;;;;5034226;28;7156;-71
2023/01/03 17:34:29;;;;;;;;;;;;;;;;;;5034004;28;7939;-71
2023/01/03 17:36:57;;;;;;;;;;;;;;;;;;5034449;28;7200;-71
2023/01/03 17:39:47;;;;;;;;;;;;;;;;;;5035245;28;7318;-71
2023/01/03 17:42:15;;;;;;;;;;;;;;;;;;5034357;28;7402;-71
2023/01/03 17:44:43;;;;;;;;;;;;;;;;;;5034134;28;6943;-71
2023/01/03 17:50:11;;;;;;;;;;;;;;;;;;5037895;28;6987;-71
2023/01/03 17:52:37;;;;;;;;;;;;;;;;;;5037984;28;7155;-71
2023/01/03 17:55:06;;;;;;;;;;;;;;;;;;5037590;28;7183;-71
2023/01/03 17:57:35;;;;;;;;;;;;;;;;;;5037971;28;7197;-71
2023/01/03 18:00:01;;;;;;;;;;;;;;;;;;5037403;28;7213;-71
2023/01/03 18:02:27;;;;;;;;;;;;;;;;;;5037951;28;7175;-71
2023/01/03 18:05:04;;;;;;;;;;;;;;;;;;5037747;28;7169;-71
2023/01/03 18:07:31;;;;;;;;;;;;;;;;;;5037777;28;7507;-71
2023/01/03 18:09:57;;;;;;;;;;;;;;;;;;5037746;28;7123;-71
2023/01/03 18:12:40;;;;;;;;;;;;;;;;;;5037661;28;7162;-71
2023/01/03 18:15:12;;;;;;;;;;;;;;;;;;5037409;28;7155;-71
2023/01/03 18:17:38;;;;;;;;;;;;;;;;;;5038187;28;7355;-71
2023/01/03 18:26:14;;;;;;;;;;;;;;;;;;5037030;28;6970;-71
2023/01/03 18:28:40;;;;;;;;;;;;;;;;;;5037354;28;7437;-71
2023/01/03 18:31:18;;;;;;;;;;;;;;;;;;5036989;28;7878;-71
2023/01/03 18:33:44;;;;;;;;;;;;;;;;;;5037263;28;7201;-71
2023/01/03 18:36:26;;;;;;;;;;;;;;;;;;5037696;28;7357;-71
2023/01/03 18:39:07;;;;;;;;;;;;;;;;;;5038060;28;7335;-71
2023/01/03 18:41:33;;;;;;;;;;;;;;;;;;5036973;28;7149;-71
2023/01/03 18:44:17;;;;;;;;;;;;;;;;;;5037128;28;6959;-71
2023/01/03 18:46:46;;;;;;;;;;;;;;;;;;4997647;28;7201;-74
2023/01/03 18:55:47;;;;;;;;;;;;;;;;;;4969808;28;6989;-71
2023/01/03 18:58:41;;;;;;;;;;;;;;;;;;4998060;28;7342;-71
2023/01/03 19:01:09;;;;;;;;;;;;;;;;;;4997091;28;7122;-71
2023/01/03 19:03:34;;;;;;;;;;;;;;;;;;4997140;28;7341;-71
2023/01/03 19:09:05;;;;;;;;;;;;;;;;;;4997027;28;6685;-71
2023/01/03 19:11:35;;;;;;;;;;;;;;;;;;4996893;28;7185;-71
2023/01/03 19:14:36;;;;;;;;;;;;;;;;;;4997112;28;7169;-71
2023/01/03 19:17:08;;;;;;;;;;;;;;;;;;4997138;28;7224;-71
2023/01/03 19:19:34;;;;;;;;;;;;;;;;;;4997031;28;7198;-71
2023/01/03 19:21:59;;;;;;;;;;;;;;;;;;4996983;28;7579;-71
2023/01/03 19:24:32;;;;;;;;;;;;;;;;;;4996614;28;7195;-71
2023/01/03 19:27:05;;;;;;;;;;;;;;;;;;4996895;28;7515;-71
2023/01/03 19:29:38;;;;;;;;;;;;;;;;;;4996513;28;7278;-71
2023/01/03 19:32:09;;;;;;;;;;;;;;;;;;4996636;28;7037;-71
2023/01/03 19:34:35;;;;;;;;;;;;;;;;;;4996623;28;7193;-71
2023/01/03 19:37:17;;;;;;;;;;;;;;;;;;4996651;28;6942;-71
2023/01/03 19:39:42;;;;;;;;;;;;;;;;;;4996167;28;8614;-71
2023/01/03 19:44:59;;;;;;;;;;;;;;;;;;4996771;28;7000;-71
2023/01/03 19:47:53;;;;;;;;;;;;;;;;;;4996493;28;7261;-71
2023/01/03 19:50:23;;;;;;;;;;;;;;;;;;4996485;28;7043;-71
2023/01/03 19:52:49;;;;;;;;;;;;;;;;;;4997162;28;7443;-71
2023/01/03 19:55:15;;;;;;;;;;;;;;;;;;4996217;28;7427;-71
2023/01/03 19:57:42;;;;;;;;;;;;;;;;;;4996360;28;7285;-71
2023/01/03 20:00:15;;;;;;;;;;;;;;;;;;4996078;28;7121;-71
2023/01/03 20:02:41;;;;;;;;;;;;;;;;;;4996206;28;7121;-71
2023/01/03 20:08:03;;;;;;;;;;;;;;;;;;4996579;28;6953;-71
2023/01/03 20:13:32;;;;;;;;;;;;;;;;;;4995805;28;7118;-71
2023/01/03 20:19:18;;;;;;;;;;;;;;;;;;4995793;28;6688;-71
2023/01/03 20:21:45;;;;;;;;;;;;;;;;;;4995749;28;7012;-71
2023/01/03 20:24:32;;;;;;;;;;;;;;;;;;4995938;28;7215;-71
2023/01/03 20:27:30;;;;;;;;;;;;;;;;;;4998079;28;7017;-71
2023/01/03 20:29:55;;;;;;;;;;;;;;;;;;5035135;28;6968;-71
2023/01/03 20:32:23;;;;;;;;;;;;;;;;;;5034987;28;7363;-71
2023/01/03 20:40:41;;;;;;;;;;;;;;;;;;5035091;28;6793;-71
2023/01/03 20:43:12;;;;;;;;;;;;;;;;;;5034853;28;7017;-71
2023/01/03 20:45:47;;;;;;;;;;;;;;;;;;5035007;28;7352;-71
2023/01/03 20:48:16;;;;;;;;;;;;;;;;;;5034803;28;7071;-71
2023/01/03 20:50:55;;;;;;;;;;;;;;;;;;5034850;28;7053;-72
2023/01/03 20:53:22;;;;;;;;;;;;;;;;;;5034623;28;6946;-72
2023/01/03 20:55:51;;;;;;;;;;;;;;;;;;5020914;28;7136;-72
2023/01/03 20:58:24;;;;;;;;;;;;;;;;;;5010170;28;7148;-72
2023/01/03 21:00:49;;;;;;;;;;;;;;;;;;4995850;28;7100;-72
2023/01/03 21:03:20;;;;;;;;;;;;;;;;;;5014830;28;6938;-72
2023/01/03 21:05:46;;;;;;;;;;;;;;;;;;5014965;28;7162;-72
2023/01/03 21:11:14;;;;;;;;;;;;;;;;;;5002699;28;6936;-72
2023/01/03 21:13:42;;;;;;;;;;;;;;;;;;4994906;28;7142;-72
2023/01/03 21:22:40;;;;;;;;;;;;;;;;;;5012611;28;6916;-72
2023/01/03 21:25:08;;;;;;;;;;;;;;;;;;5018652;28;7429;-72
2023/01/03 21:27:34;;;;;;;;;;;;;;;;;;5001422;28;7149;-72
2023/01/03 21:36:23;;;;;;;;;;;;;;;;;;5018269;28;6815;-72
2023/01/03 21:44:35;;;;;;;;;;;;;;;;;;5018338;28;7012;-72
2023/01/03 21:47:12;;;;;;;;;;;;;;;;;;5018252;28;7116;-71
2023/01/03 21:49:37;;;;;;;;;;;;;;;;;;5018305;28;7218;-71
2023/01/03 21:52:34;;;;;;;;;;;;;;;;;;5018233;28;7040;-72
2023/01/03 21:58:02;;;;;;;;;;;;;;;;;;5016956;28;6953;-72
2023/01/03 22:00:27;;;;;;;;;;;;;;;;;;5018064;28;7381;-72
2023/01/03 22:08:40;;;;;;;;;;;;;;;;;;4998402;28;6691;-72
2023/01/03 22:11:06;;;;;;;;;;;;;;;;;;4998297;28;6936;-72
2023/01/03 22:16:47;;;;;;;;;;;;;;;;;;4997789;28;7009;-69
2023/01/03 22:19:12;;;;;;;;;;;;;;;;;;4997798;28;7263;-70
2023/01/03 22:21:42;;;;;;;;;;;;;;;;;;4997994;28;6915;-69
2023/01/03 22:24:07;;;;;;;;;;;;;;;;;;5014867;28;6940;-69
2023/01/03 22:26:41;;;;;;;;;;;;;;;;;;5017586;28;7390;-69
2023/01/03 22:29:07;;;;;;;;;;;;;;;;;;5001611;28;7473;-69
2023/01/03 22:32:09;;;;;;;;;;;;;;;;;;4997847;28;7173;-69
2023/01/03 22:35:02;;;;;;;;;;;;;;;;;;4997235;28;6968;-70
2023/01/03 22:37:28;;;;;;;;;;;;;;;;;;5008867;28;7182;-69
2023/01/03 22:39:53;;;;;;;;;;;;;;;;;;5017399;28;7094;-69
2023/01/03 22:48:24;;;;;;;;;;;;;;;;;;5017240;28;6705;-69
2023/01/03 22:50:50;;;;;;;;;;;;;;;;;;5018397;28;7262;-69
2023/01/03 22:53:15;;;;;;;;;;;;;;;;;;5017024;28;7145;-69
2023/01/03 22:59:06;;;;;;;;;;;;;;;;;;5016950;28;6692;-70
2023/01/03 23:01:31;;;;;;;;;;;;;;;;;;5016937;28;7097;-69
2023/01/03 23:03:59;;;;;;;;;;;;;;;;;;5016988;28;6959;-69
2023/01/03 23:06:28;;;;;;;;;;;;;;;;;;4999229;28;7260;-69
2023/01/03 23:08:54;;;;;;;;;;;;;;;;;;5016879;28;7138;-70
2023/01/03 23:14:08;;;;;;;;;;;;;;;;;;5016838;28;6803;-69
2023/01/03 23:16:34;;;;;;;;;;;;;;;;;;5016643;28;7235;-69
2023/01/03 23:19:04;;;;;;;;;;;;;;;;;;5016326;28;7158;-69
2023/01/03 23:21:45;;;;;;;;;;;;;;;;;;5016580;28;7040;-69
2023/01/03 23:27:13;;;;;;;;;;;;;;;;;;5016355;28;7044;-70
2023/01/03 23:32:42;;;;;;;;;;;;;;;;;;5016146;28;6676;-68
2023/01/03 23:35:08;;;;;;;;;;;;;;;;;;5016303;28;7442;-70
2023/01/03 23:37:33;;;;;;;;;;;;;;;;;;5015950;28;7183;-69
2023/01/03 23:40:24;;;;;;;;;;;;;;;;;;4999693;28;8727;-70
2023/01/03 23:42:50;;;;;;;;;;;;;;;;;;5016015;28;7032;-69
2023/01/03 23:45:39;;;;;;;;;;;;;;;;;;5015844;28;6943;-69